Time;durP1;ratioP1;P1;durP2;ratioP2;P2;SDS_P1;SDS_P2;PMS_P1;PMS_P2;Temp;Humidity;BMP_temperature;BMP_pressure;BME280_temperature;BME280_humidity;BME280_pressure;Samples;Min_cycle;Max_cycle;Signal;HPM_P1;HPM_P2
2022/10/06 00:01:07;;;;;;;7.22;1.00;;;;;;;13.66;79.40;102011.75;4991823;28;20054;-73
2022/10/06 00:03:37;;;;;;;4.40;1.00;;;;;;;13.61;79.47;102016.31;4993185;28;20538;-73
2022/10/06 00:06:06;;;;;;;4.07;1.00;;;;;;;13.58;79.39;102017.22;5006161;28;20042;-74
2022/10/06 00:08:36;;;;;;;5.82;1.15;;;;;;;13.53;79.24;102021.78;5008524;28;20057;-73
2022/10/06 00:11:06;;;;;;;4.95;1.00;;;;;;;13.53;79.19;102037.69;5000710;28;20081;-73
2022/10/06 00:13:34;;;;;;;7.72;0.68;;;;;;;13.53;78.77;102028.88;5003453;28;20122;-71
2022/10/06 00:16:08;;;;;;;7.72;0.90;;;;;;;13.51;78.44;102039.50;5004693;28;20047;-71
2022/10/06 00:18:35;;;;;;;6.10;1.42;;;;;;;13.50;78.18;102048.34;5001120;28;20052;-71
2022/10/06 00:21:03;;;;;;;6.15;1.00;;;;;;;13.48;77.99;102052.84;5009593;28;20054;-71
2022/10/06 00:23:32;;;;;;;6.93;1.42;;;;;;;13.46;77.96;102052.00;5001799;28;20085;-72
2022/10/06 00:25:59;;;;;;;8.13;1.00;;;;;;;13.44;77.99;102064.41;5010505;28;20085;-72
2022/10/06 00:28:26;;;;;;;5.57;1.30;;;;;;;13.41;77.89;102072.41;5004366;28;20049;-73
2022/10/06 00:30:55;;;;;;;5.90;0.85;;;;;;;13.39;77.98;102083.03;4996197;28;20499;-70
2022/10/06 00:33:22;;;;;;;6.18;1.20;;;;;;;13.38;77.83;102085.69;5001369;28;20121;-70
2022/10/06 00:35:57;;;;;;;9.48;1.05;;;;;;;13.35;77.82;102083.97;5005591;28;20042;-70
2022/10/06 00:38:26;;;;;;;6.68;1.15;;;;;;;13.33;78.12;102086.66;5008028;28;20043;-70
2022/10/06 00:40:54;;;;;;;8.13;1.17;;;;;;;13.31;78.29;102087.59;5010768;28;20038;-70
2022/10/06 00:43:59;;;;;;;9.05;1.20;;;;;;;13.31;78.20;102079.66;5004325;28;20054;-71
2022/10/06 00:46:50;;;;;;;4.20;1.00;;;;;;;13.27;78.48;102099.16;4999361;28;20517;-70
2022/10/06 00:49:26;;;;;;;3.17;0.88;;;;;;;13.27;78.30;102096.50;4995901;28;20038;-70
2022/10/06 00:52:10;;;;;;;6.95;1.17;;;;;;;13.25;78.24;102100.97;5008661;28;20046;-69
2022/10/06 00:54:37;;;;;;;7.55;1.05;;;;;;;13.22;78.27;102115.16;5006176;28;20097;-69
2022/10/06 00:57:06;;;;;;;10.02;1.50;;;;;;;13.24;77.90;102120.41;5003108;28;20049;-69
2022/10/06 00:59:36;;;;;;;8.38;1.70;;;;;;;13.23;77.94;102126.63;4993142;28;20054;-69
2022/10/06 01:02:12;;;;;;;7.07;1.30;;;;;;;13.21;77.87;102124.00;5006956;28;20145;-69
2022/10/06 01:04:47;;;;;;;4.63;1.17;;;;;;;13.16;77.33;102121.44;4997709;28;20132;-69
2022/10/06 01:07:19;;;;;;;6.82;1.20;;;;;;;13.14;77.95;102125.03;5022403;28;20047;-69
2022/10/06 01:09:48;;;;;;;8.52;1.42;;;;;;;13.13;77.83;102131.22;5009360;28;20094;-71
2022/10/06 01:12:15;;;;;;;4.90;1.00;;;;;;;13.09;77.62;102135.72;4992376;28;20035;-70
2022/10/06 01:14:43;;;;;;;7.00;1.17;;;;;;;13.11;77.10;102135.69;4994552;28;20046;-70
2022/10/06 01:17:18;;;;;;;12.82;1.70;;;;;;;13.08;77.09;102131.31;4992671;28;20039;-70
2022/10/06 01:19:51;;;;;;;4.32;1.10;;;;;;;13.07;77.06;102147.25;5002394;28;20054;-70
2022/10/06 01:22:42;;;;;;;7.25;1.20;;;;;;;13.07;76.69;102157.84;5002529;28;20046;-70
2022/10/06 01:25:13;;;;;;;8.23;1.55;;;;;;;13.01;76.50;102151.75;5005040;28;20046;-70
2022/10/06 01:27:49;;;;;;;10.50;1.40;;;;;;;13.02;76.68;102163.22;5005061;28;20491;-69
2022/10/06 01:30:25;;;;;;;5.72;1.33;;;;;;;12.98;76.59;102165.03;5004754;28;20053;-69
2022/10/06 01:32:55;;;;;;;9.38;1.58;;;;;;;12.96;76.65;102169.50;5015652;28;20559;-70
2022/10/06 01:35:22;;;;;;;7.35;1.33;;;;;;;12.96;76.43;102173.91;5002576;28;20059;-70
2022/10/06 01:37:49;;;;;;;7.68;1.48;;;;;;;12.95;76.50;102181.00;5002540;28;20043;-70
2022/10/06 01:40:18;;;;;;;6.15;1.52;;;;;;;12.95;76.62;102183.66;4996432;28;20046;-70
2022/10/06 01:42:45;;;;;;;8.85;1.52;;;;;;;12.95;76.71;102188.94;5009661;28;20472;-70
2022/10/06 01:45:12;;;;;;;9.00;1.40;;;;;;;12.98;76.90;102188.84;5000970;28;20046;-69
2022/10/06 01:47:40;;;;;;;10.82;1.33;;;;;;;13.02;76.88;102195.84;4999656;28;20042;-70
2022/10/06 01:50:09;;;;;;;10.48;1.63;;;;;;;13.05;76.98;102195.81;5004376;28;20781;-69
2022/10/06 01:52:36;;;;;;;6.38;1.60;;;;;;;13.08;77.06;102201.91;5017186;28;20042;-70
2022/10/06 01:55:05;;;;;;;6.28;1.33;;;;;;;13.07;77.10;102198.41;5006388;28;20045;-70
2022/10/06 01:57:40;;;;;;;10.80;1.67;;;;;;;13.04;76.93;102199.34;5009602;28;20039;-68
2022/10/06 02:00:10;;;;;;;7.97;1.23;;;;;;;13.04;76.62;102201.09;5014809;28;20074;-69
2022/10/06 02:02:42;;;;;;;8.55;1.33;;;;;;;13.00;76.96;102197.66;4999511;28;20035;-70
2022/10/06 02:05:11;;;;;;;5.82;1.23;;;;;;;12.98;76.80;102206.53;5009631;28;20046;-69
2022/10/06 02:07:43;;;;;;;5.47;1.50;;;;;;;12.95;76.97;102217.16;5007450;28;20047;-69
2022/10/06 02:10:13;;;;;;;7.95;1.55;;;;;;;12.93;76.91;102224.25;5021533;28;20038;-70
2022/10/06 02:12:41;;;;;;;8.35;1.45;;;;;;;12.93;76.68;102222.50;5006053;28;20097;-70
2022/10/06 02:15:12;;;;;;;5.15;1.23;;;;;;;12.89;76.90;102223.44;5004519;28;20053;-70
2022/10/06 02:17:39;;;;;;;7.93;1.40;;;;;;;12.88;76.73;102226.97;4994438;28;20035;-70
2022/10/06 02:20:06;;;;;;;14.68;1.50;;;;;;;12.85;76.70;102221.75;4994610;28;20050;-69
2022/10/06 02:22:42;;;;;;;7.30;1.30;;;;;;;12.82;76.72;102235.03;4993374;28;20051;-69
2022/10/06 02:25:11;;;;;;;6.85;1.20;;;;;;;12.77;76.73;102229.84;5002800;28;20516;-69
2022/10/06 02:27:39;;;;;;;7.03;1.40;;;;;;;12.76;76.67;102238.66;4994692;28;20350;-69
2022/10/06 02:30:13;;;;;;;7.90;1.30;;;;;;;12.73;76.98;102246.66;5009143;28;20116;-69
2022/10/06 02:32:42;;;;;;;8.35;1.38;;;;;;;12.70;76.74;102247.56;5009892;28;20122;-70
2022/10/06 02:35:11;;;;;;;11.05;1.15;;;;;;;12.67;76.90;102250.25;5000744;28;20070;-70
2022/10/06 02:37:41;;;;;;;11.57;1.70;;;;;;;12.65;76.97;102252.09;4993864;28;20050;-70
2022/10/06 02:40:10;;;;;;;5.22;1.35;;;;;;;12.61;77.13;102257.47;5010512;28;20501;-70
2022/10/06 02:42:37;;;;;;;7.85;1.30;;;;;;;12.58;77.11;102261.91;5010451;28;20039;-70
2022/10/06 02:45:07;;;;;;;7.18;1.45;;;;;;;12.58;77.30;102264.53;5026259;28;20074;-70
2022/10/06 02:47:37;;;;;;;6.55;1.48;;;;;;;12.55;77.10;102275.16;5007184;28;20050;-70
2022/10/06 02:50:06;;;;;;;8.18;1.50;;;;;;;12.54;76.91;102284.00;4995250;28;20475;-69
2022/10/06 02:52:36;;;;;;;6.95;1.23;;;;;;;12.50;77.41;102281.41;5010458;28;20062;-69
2022/10/06 02:55:06;;;;;;;8.32;1.50;;;;;;;12.46;77.26;102287.66;5009046;28;20067;-70
2022/10/06 02:57:33;;;;;;;7.50;1.48;;;;;;;12.41;77.52;102285.94;5008794;28;21916;-69
2022/10/06 03:00:01;;;;;;;7.30;1.10;;;;;;;12.38;77.53;102301.84;4996939;28;20097;-69
2022/10/06 03:02:33;;;;;;;8.20;1.10;;;;;;;12.36;77.53;102302.78;5019173;28;20502;-69
2022/10/06 03:05:00;;;;;;;8.73;1.60;;;;;;;12.34;77.70;102301.94;4991729;28;20043;-69
2022/10/06 03:07:27;;;;;;;12.00;1.70;;;;;;;12.32;77.64;102307.25;5013518;28;20047;-69
2022/10/06 03:09:54;;;;;;;13.13;1.67;;;;;;;12.29;77.64;102311.72;5018929;28;20053;-69
2022/10/06 03:12:24;;;;;;;7.45;1.42;;;;;;;12.27;77.64;102319.66;5007751;28;20046;-69
2022/10/06 03:14:51;;;;;;;11.45;1.48;;;;;;;12.25;77.71;102318.81;5006533;28;20042;-68
2022/10/06 03:17:19;;;;;;;6.65;1.48;;;;;;;12.23;77.57;102323.25;4993715;28;20054;-68
2022/10/06 03:19:53;;;;;;;9.10;1.60;;;;;;;12.20;77.56;102334.75;5006725;28;20057;-68
2022/10/06 03:22:20;;;;;;;13.65;1.60;;;;;;;12.18;77.61;102333.00;5008821;28;20035;-69
2022/10/06 03:24:54;;;;;;;8.90;1.40;;;;;;;12.15;77.53;102338.34;5006928;28;20093;-69
2022/10/06 03:27:21;;;;;;;7.60;1.27;;;;;;;12.13;77.61;102345.41;4999110;28;20117;-69
2022/10/06 03:29:50;;;;;;;12.52;1.85;;;;;;;12.10;77.49;102354.25;5004104;28;20040;-69
2022/10/06 03:32:21;;;;;;;9.88;2.00;;;;;;;12.08;77.50;102359.53;5019321;28;20059;-70
2022/10/06 03:34:52;;;;;;;9.63;1.80;;;;;;;12.06;77.58;102350.75;5005613;28;20053;-69
2022/10/06 03:37:19;;;;;;;8.20;1.85;;;;;;;12.02;77.80;102354.34;5010436;28;20046;-69
2022/10/06 03:39:46;;;;;;;10.18;1.73;;;;;;;12.00;77.64;102353.47;4999806;28;20046;-69
2022/10/06 03:42:13;;;;;;;11.23;1.77;;;;;;;11.96;77.63;102363.19;5008637;28;20145;-69
2022/10/06 03:44:41;;;;;;;9.90;1.90;;;;;;;11.93;77.85;102370.28;5018350;28;20046;-69
2022/10/06 03:47:08;;;;;;;7.70;1.88;;;;;;;11.92;77.78;102376.47;5000395;28;20508;-70
2022/10/06 03:49:42;;;;;;;;;;;;;;;11.86;77.83;102376.50;5008886;28;20976;-70
2022/10/06 03:52:09;;;;;;;17.45;1.90;;;;;;;11.81;77.95;102380.09;5003351;28;19925;-70
2022/10/06 03:54:37;;;;;;;12.88;2.40;;;;;;;11.79;78.12;102384.50;5008917;28;20042;-71
2022/10/06 03:57:04;;;;;;;11.85;1.80;;;;;;;11.79;78.21;102384.50;4995995;28;20035;-71
2022/10/06 03:59:33;;;;;;;9.70;1.58;;;;;;;11.77;78.26;102394.22;5006214;28;20046;-70
2022/10/06 04:02:02;;;;;;;6.03;1.40;;;;;;;11.75;78.05;102395.13;5013236;28;20125;-71
2022/10/06 04:04:34;;;;;;;15.95;1.65;;;;;;;11.73;78.38;102396.91;5020904;28;20078;-71
2022/10/06 04:07:06;;;;;;;9.40;2.13;;;;;;;11.71;78.38;102398.69;5007361;28;20545;-71
2022/10/06 04:09:33;;;;;;;9.30;1.83;;;;;;;11.67;78.45;102413.69;5006954;28;20092;-71
2022/10/06 04:12:00;;;;;;;11.55;1.80;;;;;;;11.63;78.55;102412.84;5010789;28;20854;-71
2022/10/06 04:14:29;;;;;;;12.57;1.67;;;;;;;11.59;78.51;102413.78;5005509;28;20407;-71
2022/10/06 04:16:56;;;;;;;13.48;1.70;;;;;;;11.58;78.61;102419.06;5002755;28;20046;-71
2022/10/06 04:19:28;;;;;;;11.32;1.60;;;;;;;11.56;78.74;102423.47;5003321;28;20054;-70
2022/10/06 04:21:57;;;;;;;15.25;2.13;;;;;;;11.54;78.88;102423.50;5025812;28;20061;-70
2022/10/06 04:24:24;;;;;;;13.70;2.15;;;;;;;11.52;78.95;102435.84;5006238;28;20043;-70
2022/10/06 04:26:52;;;;;;;19.67;1.92;;;;;;;11.48;79.09;102435.00;4998985;28;20097;-70
2022/10/06 04:29:20;;;;;;;21.98;2.25;;;;;;;11.45;79.03;102440.31;5016867;28;20047;-69
2022/10/06 04:31:53;;;;;;;15.32;2.20;;;;;;;11.43;79.16;102439.47;5005861;28;20082;-70
2022/10/06 04:34:25;;;;;;;11.68;1.85;;;;;;;11.39;79.37;102447.44;5012896;28;20046;-70
2022/10/06 04:36:53;;;;;;;11.68;1.85;;;;;;;11.36;79.51;102445.66;5025576;28;21644;-70
2022/10/06 04:39:27;;;;;;;8.90;1.83;;;;;;;11.33;79.66;102448.34;5009790;28;20108;-70
2022/10/06 04:41:54;;;;;;;10.15;1.63;;;;;;;11.29;79.59;102452.75;5008229;28;20049;-70
2022/10/06 04:44:26;;;;;;;10.02;1.75;;;;;;;11.27;79.53;102457.19;5004677;28;20051;-71
2022/10/06 04:46:55;;;;;;;22.20;2.47;;;;;;;11.24;79.61;102459.84;5007835;28;20122;-71
2022/10/06 04:49:23;;;;;;;16.25;2.22;;;;;;;11.22;80.03;102455.47;5007797;28;20182;-70
2022/10/06 04:51:52;;;;;;;15.98;2.13;;;;;;;11.17;80.06;102461.66;5000659;28;20047;-71
2022/10/06 04:54:20;;;;;;;12.85;2.35;;;;;;;11.15;80.24;102467.84;5025721;28;20042;-70
2022/10/06 04:56:52;;;;;;;10.75;2.03;;;;;;;11.11;80.43;102471.38;4991038;28;20035;-68
2022/10/06 05:00:21;;;;;;;10.23;1.42;;;;;;;11.06;80.33;102470.53;5002233;28;20073;-68
2022/10/06 05:02:12;;;;;;;17.50;2.38;;;;;;;11.05;80.60;102474.06;5006408;28;20798;-69
2022/10/06 05:04:41;;;;;;;13.73;1.90;;;;;;;11.05;81.01;102484.59;4990397;28;20070;-68
2022/10/06 05:07:08;;;;;;;17.60;2.28;;;;;;;11.07;81.16;102483.72;5013316;28;20042;-69
2022/10/06 05:09:36;;;;;;;12.57;2.35;;;;;;;11.12;81.07;102496.88;5007087;28;20539;-67
2022/10/06 05:12:29;;;;;;;11.82;2.25;;;;;;;11.15;81.27;102507.41;5019977;28;20098;-69
2022/10/06 05:14:58;;;;;;;15.80;2.45;;;;;;;11.18;81.24;102503.00;4999210;28;20118;-69
2022/10/06 05:17:26;;;;;;;11.43;1.80;;;;;;;11.22;81.07;102510.91;5008284;28;20043;-69
2022/10/06 05:19:53;;;;;;;20.48;3.55;;;;;;;11.21;80.76;102512.66;5019993;28;20061;-70
2022/10/06 05:22:22;;;;;;;15.77;1.90;;;;;;;11.24;80.97;102517.06;4991547;28;20057;-69
2022/10/06 05:24:52;;;;;;;27.25;3.42;;;;;;;11.26;80.80;102528.47;4995642;28;20046;-69
2022/10/06 05:27:19;;;;;;;20.55;2.53;;;;;;;11.24;80.47;102519.69;5004541;28;20039;-69
2022/10/06 05:29:50;;;;;;;24.70;3.08;;;;;;;11.23;80.42;102526.72;4994471;28;20042;-69
2022/10/06 05:32:17;;;;;;;19.83;2.33;;;;;;;11.23;80.45;102523.22;5007215;28;20035;-69
2022/10/06 05:34:44;;;;;;;18.90;2.75;;;;;;;11.26;80.60;102533.75;5005835;28;20059;-69
2022/10/06 05:37:11;;;;;;;13.48;2.33;;;;;;;11.25;80.27;102538.16;4993491;28;20043;-68
2022/10/06 05:39:39;;;;;;;15.15;2.17;;;;;;;11.19;80.06;102543.50;5008598;28;20509;-69
2022/10/06 05:42:06;;;;;;;17.95;2.50;;;;;;;11.13;79.94;102541.75;5027593;28;20133;-69
2022/10/06 05:44:33;;;;;;;29.27;4.03;;;;;;;11.06;80.05;102550.56;5009994;28;20579;-70
2022/10/06 05:47:05;;;;;;;40.08;4.85;;;;;;;11.01;80.19;102552.38;4996398;28;20535;-69
2022/10/06 05:49:33;;;;;;;20.45;2.55;;;;;;;10.95;80.34;102560.28;5008778;28;20511;-69
2022/10/06 05:52:05;;;;;;;30.48;3.28;;;;;;;10.89;80.10;102558.56;5028052;28;20049;-69
2022/10/06 05:54:35;;;;;;;21.52;2.92;;;;;;;10.84;80.44;102565.63;5015141;28;20046;-70
2022/10/06 05:57:04;;;;;;;22.08;2.53;;;;;;;10.82;80.33;102570.03;5028149;28;20050;-69
2022/10/06 05:59:33;;;;;;;26.33;3.22;;;;;;;10.81;80.49;102571.81;5010529;28;20050;-70
2022/10/06 06:02:02;;;;;;;18.67;2.10;;;;;;;10.80;80.41;102584.97;5026239;28;20504;-70
2022/10/06 06:04:37;;;;;;;16.90;2.60;;;;;;;10.78;80.60;102586.78;5014121;28;20534;-69
2022/10/06 06:07:04;;;;;;;15.38;2.40;;;;;;;10.76;80.53;102589.41;5011586;28;20145;-69
2022/10/06 06:09:32;;;;;;;22.42;2.72;;;;;;;10.76;80.38;102591.16;5008596;28;20146;-69
2022/10/06 06:12:01;;;;;;;28.00;2.72;;;;;;;10.77;80.69;102595.56;5006083;28;20046;-70
2022/10/06 06:17:24;;;;;;;18.02;2.78;;;;;;;10.74;80.54;102603.47;5009859;28;20050;-69
2022/10/06 06:19:51;;;;;;;17.17;2.33;;;;;;;10.75;80.56;102606.09;5012963;28;20567;-69
2022/10/06 06:22:18;;;;;;;16.63;2.90;;;;;;;10.76;80.46;102607.84;5016137;28;20047;-70
2022/10/06 06:24:48;;;;;;;19.48;3.03;;;;;;;10.78;80.66;102618.44;4992090;28;20046;-69
2022/10/06 06:27:16;;;;;;;19.30;2.58;;;;;;;10.80;80.44;102614.00;4997574;28;20070;-69
2022/10/06 06:29:44;;;;;;;19.40;2.38;;;;;;;10.82;80.28;102614.88;5005683;28;20420;-69
2022/10/06 06:32:13;;;;;;;22.70;3.03;;;;;;;10.83;80.23;102620.19;5020070;28;20069;-70
2022/10/06 06:34:41;;;;;;;13.63;2.25;;;;;;;10.84;80.17;102619.25;5006675;28;20039;-70
2022/10/06 06:37:09;;;;;;;16.23;2.83;;;;;;;10.85;80.21;102630.72;5019548;28;20520;-69
2022/10/06 06:39:41;;;;;;;20.55;2.60;;;;;;;10.88;80.36;102633.34;5025566;28;20045;-69
2022/10/06 06:42:08;;;;;;;22.02;3.40;;;;;;;10.91;80.14;102633.31;5029295;28;20896;-70
2022/10/06 06:44:56;;;;;;;12.65;2.85;;;;;;;10.95;80.21;102643.00;5012993;28;20049;-69
2022/10/06 06:47:39;;;;;;;18.58;2.90;;;;;;;11.00;80.08;102642.97;5009566;28;20042;-69
2022/10/06 06:50:09;;;;;;;20.75;3.40;;;;;;;11.06;79.73;102647.34;5027103;28;20046;-69
2022/10/06 06:52:38;;;;;;;25.65;2.72;;;;;;;11.07;79.58;102655.25;5007828;28;20102;-69
2022/10/06 06:55:08;;;;;;;18.33;2.42;;;;;;;11.11;79.50;102653.47;5013030;28;20050;-70
2022/10/06 06:57:35;;;;;;;14.57;2.83;;;;;;;11.15;79.32;102650.81;5033285;28;20049;-70
2022/10/06 07:00:06;;;;;;;21.30;2.78;;;;;;;11.20;79.34;102658.72;5004374;28;20042;-70
2022/10/06 07:02:35;;;;;;;21.60;3.40;;;;;;;11.25;79.23;102659.59;5014239;28;20114;-69
2022/10/06 07:05:04;;;;;;;19.92;3.03;;;;;;;11.30;79.08;102664.88;5010905;28;20050;-70
2022/10/06 07:07:31;;;;;;;22.40;3.25;;;;;;;11.36;79.04;102667.47;5026682;28;20140;-70
2022/10/06 07:09:58;;;;;;;17.33;3.03;;;;;;;11.42;78.95;102674.47;5029049;28;20037;-70
2022/10/06 07:12:26;;;;;;;42.42;4.22;;;;;;;11.48;78.63;102671.84;5029620;28;20038;-69
2022/10/06 07:26:16;;;;;;;13.68;2.33;;;;;;;11.83;77.74;102696.31;5028038;28;20429;-69
2022/10/06 07:28:43;;;;;;;20.63;2.63;;;;;;;11.89;77.47;102696.25;5029197;28;20043;-70
2022/10/06 07:31:17;;;;;;;13.57;2.22;;;;;;;11.94;77.17;102705.03;5011528;28;20559;-70
2022/10/06 07:33:46;;;;;;;11.00;2.13;;;;;;;12.01;76.94;102711.16;5008168;28;20050;-69
2022/10/06 07:36:15;;;;;;;17.55;2.63;;;;;;;12.05;76.91;102711.19;5006830;28;20042;-69
2022/10/06 07:38:42;;;;;;;17.92;3.28;;;;;;;12.13;76.51;102721.69;5011167;28;20047;-69
2022/10/06 07:41:09;;;;;;;14.50;2.63;;;;;;;12.19;76.53;102724.28;5024588;28;20046;-69
2022/10/06 07:43:55;;;;;;;17.25;2.50;;;;;;;12.28;76.22;102736.56;5030879;28;20538;-69
2022/10/06 07:46:23;;;;;;;24.77;3.35;;;;;;;12.36;76.26;102734.72;5031251;28;20061;-70
2022/10/06 07:48:56;;;;;;;13.93;2.40;;;;;;;12.43;75.96;102733.81;5030301;28;20524;-70
2022/10/06 07:51:26;;;;;;;16.20;2.67;;;;;;;12.52;75.83;102734.63;5031176;28;20046;-69
2022/10/06 07:53:54;;;;;;;19.33;2.53;;;;;;;12.61;75.58;102746.91;5047459;28;20503;-70
2022/10/06 07:56:27;;;;;;;13.02;2.20;;;;;;;12.69;75.46;102753.00;5021874;28;20069;-70
2022/10/06 07:58:57;;;;;;;14.18;2.88;;;;;;;12.76;75.19;102753.84;5026523;28;20544;-69
2022/10/06 08:01:26;;;;;;;12.80;2.67;;;;;;;12.82;74.96;102751.97;5012393;28;20047;-70
2022/10/06 08:03:53;;;;;;;15.13;2.95;;;;;;;12.90;74.62;102759.84;5012548;28;20050;-69
2022/10/06 08:06:23;;;;;;;11.20;1.75;;;;;;;12.97;73.47;102761.53;5012153;28;20295;-70
2022/10/06 08:08:51;;;;;;;14.70;2.13;;;;;;;13.07;73.22;102761.47;5011762;28;20097;-69
2022/10/06 08:11:20;;;;;;;13.05;2.58;;;;;;;13.14;73.29;102765.81;5024805;28;20117;-70
2022/10/06 08:13:48;;;;;;;17.90;2.97;;;;;;;13.23;72.45;102768.34;5032255;28;20549;-70
2022/10/06 08:16:22;;;;;;;12.90;2.30;;;;;;;13.30;72.49;102769.19;5031602;28;20066;-69
2022/10/06 08:18:53;;;;;;;52.28;5.18;;;;;;;13.36;72.35;102777.03;5013785;28;20043;-69
2022/10/06 08:21:33;;;;;;;21.98;2.50;;;;;;;13.43;72.60;102772.59;5012606;28;20050;-69
2022/10/06 08:24:03;;;;;;;25.40;2.85;;;;;;;13.51;72.45;102774.25;5012158;28;20103;-70
2022/10/06 08:26:32;;;;;;;22.10;3.20;;;;;;;13.62;71.64;102782.06;5021125;28;21270;-69
2022/10/06 08:29:01;;;;;;;18.08;2.88;;;;;;;13.70;71.25;102786.38;5011457;28;20089;-69
2022/10/06 08:31:30;;;;;;;33.80;3.22;;;;;;;13.78;70.84;102788.06;5011903;28;20055;-70
2022/10/06 08:33:57;;;;;;;20.05;2.58;;;;;;;13.87;70.90;102788.81;5011706;28;20054;-70
2022/10/06 08:36:26;;;;;;;16.30;3.00;;;;;;;13.93;71.01;102786.97;5011108;28;20049;-69
2022/10/06 08:38:59;;;;;;;18.97;2.50;;;;;;;14.01;70.01;102786.00;5011319;28;20620;-69
2022/10/06 08:41:47;;;;;;;27.33;3.28;;;;;;;14.07;70.18;102793.88;4992357;28;20276;-70
2022/10/06 08:44:20;;;;;;;11.48;2.25;;;;;;;14.14;69.97;102798.19;4991560;28;20046;-69
2022/10/06 08:47:04;;;;;;;18.52;2.78;;;;;;;14.22;68.22;102804.25;4996097;28;20042;-69
2022/10/06 08:49:43;;;;;;;18.15;2.30;;;;;;;14.28;67.50;102808.59;4992066;28;20521;-69
2022/10/06 08:52:40;;;;;;;19.60;2.45;;;;;;;14.32;66.94;102809.44;5003334;28;20077;-70
2022/10/06 08:55:22;;;;;;;19.25;2.90;;;;;;;14.35;68.25;102815.56;5020307;28;20078;-70
2022/10/06 08:58:37;;;;;;;9.57;1.70;;;;;;;14.46;67.27;102815.41;5017460;28;20090;-70
2022/10/06 09:01:17;;;;;;;21.33;3.28;;;;;;;14.54;67.95;102820.63;5011157;28;20043;-69
2022/10/06 09:03:47;;;;;;;14.52;2.38;;;;;;;14.59;67.91;102821.41;5011196;28;20054;-69
2022/10/06 09:06:39;;;;;;;14.52;2.50;;;;;;;14.67;66.53;102818.66;5011906;28;20046;-69
2022/10/06 09:09:56;;;;;;;14.40;1.90;;;;;;;14.78;65.33;102831.75;5010115;28;20664;-70
2022/10/06 09:12:50;;;;;;;21.42;2.92;;;;;;;14.84;65.95;102829.00;5017389;28;20516;-70
2022/10/06 09:15:37;;;;;;;12.40;1.93;;;;;;;14.94;65.44;102829.72;5011149;28;20050;-69
2022/10/06 09:18:18;;;;;;;13.75;2.03;;;;;;;14.98;65.93;102847.38;5011319;28;20520;-69
2022/10/06 09:21:00;;;;;;;14.38;2.63;;;;;;;15.03;65.53;102843.72;5010786;28;20539;-69
2022/10/06 09:23:46;;;;;;;10.27;1.80;;;;;;;15.15;64.83;102847.09;5010645;28;20049;-69
2022/10/06 09:26:45;;;;;;;11.82;2.15;;;;;;;15.20;64.97;102843.44;5017835;28;20129;-69
2022/10/06 09:29:13;;;;;;;16.02;2.65;;;;;;;15.27;64.01;102845.97;5041421;28;20058;-69
2022/10/06 09:31:49;;;;;;;18.92;2.40;;;;;;;15.33;63.42;102857.38;5031315;28;20041;-69
2022/10/06 09:34:36;;;;;;;7.30;1.45;;;;;;;15.39;61.65;102853.72;5012141;28;20078;-70
2022/10/06 09:37:11;;;;;;;10.23;1.30;;;;;;;15.33;61.43;102857.38;5010633;28;20046;-69
2022/10/06 09:39:43;;;;;;;12.23;2.08;;;;;;;15.38;61.62;102860.81;5011119;28;20057;-69
2022/10/06 09:42:19;;;;;;;12.18;1.60;;;;;;;15.42;62.02;102860.75;5027781;28;20045;-69
2022/10/06 09:44:49;;;;;;;9.98;1.70;;;;;;;15.50;62.35;102866.81;5030232;28;20610;-70
2022/10/06 09:47:31;;;;;;;15.27;2.13;;;;;;;15.61;62.29;102862.16;5030862;28;20048;-69
2022/10/06 09:50:11;;;;;;;6.03;1.50;;;;;;;15.74;62.60;102860.13;5020624;28;20073;-69
2022/10/06 09:52:40;;;;;;;11.05;1.73;;;;;;;15.92;60.59;102860.72;5010648;28;20082;-69
2022/10/06 09:55:16;;;;;;;17.45;1.63;;;;;;;16.03;58.50;102861.34;5012224;28;20206;-69
2022/10/06 09:57:51;;;;;;;8.52;1.65;;;;;;;16.05;57.92;102864.84;5029287;28;20767;-69
2022/10/06 10:00:35;;;;;;;13.23;1.85;;;;;;;16.08;58.93;102859.47;5014376;28;20493;-69
2022/10/06 10:03:07;;;;;;;13.38;2.25;;;;;;;16.10;59.00;102862.97;5010590;28;20055;-70
2022/10/06 10:05:44;;;;;;;12.43;1.67;;;;;;;16.14;59.11;102861.13;5010632;28;20038;-69
2022/10/06 10:08:26;;;;;;;14.55;2.13;;;;;;;16.21;58.26;102856.56;5010753;28;20043;-70
2022/10/06 10:14:19;;;;;;;12.70;1.45;;;;;;;16.28;57.95;102866.13;5020551;28;20050;-70
2022/10/06 10:16:47;;;;;;;8.98;1.83;;;;;;;16.28;57.92;102864.34;5013766;28;20061;-70
2022/10/06 10:19:35;;;;;;;13.35;1.88;;;;;;;16.34;58.29;102867.78;5013971;28;20058;-70
2022/10/06 10:22:03;;;;;;;11.70;2.10;;;;;;;16.42;57.49;102866.72;5013584;28;20520;-69
2022/10/06 10:24:52;;;;;;;11.10;1.40;;;;;;;16.48;56.61;102868.38;5012753;28;20814;-70
2022/10/06 10:27:58;;;;;;;8.95;1.20;;;;;;;16.50;56.58;102879.81;5021417;28;20116;-70
2022/10/06 10:30:27;;;;;;;7.85;1.23;;;;;;;16.59;57.66;102873.44;5000083;28;20043;-69
2022/10/06 10:33:14;;;;;;;8.02;1.70;;;;;;;16.57;57.82;102872.59;5013111;28;20046;-69
2022/10/06 10:35:51;;;;;;;10.52;1.45;;;;;;;16.56;57.25;102871.72;5010508;28;20897;-69
2022/10/06 10:38:22;;;;;;;11.57;1.95;;;;;;;16.55;57.73;102877.94;5000839;28;20488;-69
2022/10/06 10:41:08;;;;;;;12.73;1.30;;;;;;;16.60;55.88;102878.72;4995536;28;20047;-69
2022/10/06 10:43:54;;;;;;;11.43;1.80;;;;;;;16.48;55.80;102879.00;5001127;28;20797;-69
2022/10/06 10:46:43;;;;;;;8.57;1.95;;;;;;;16.59;56.29;102879.63;5013520;28;20101;-70
2022/10/06 10:49:34;;;;;;;10.18;1.48;;;;;;;16.72;56.00;102872.22;5015117;28;20046;-70
2022/10/06 10:52:19;;;;;;;9.75;1.63;;;;;;;16.87;56.33;102875.41;5033287;28;20054;-69
2022/10/06 10:55:14;;;;;;;15.48;2.08;;;;;;;17.10;54.96;102877.53;5010332;28;20101;-70
2022/10/06 10:57:44;;;;;;;6.50;1.77;;;;;;;17.31;54.53;102876.13;5005564;28;20378;-70
2022/10/06 11:00:21;;;;;;;8.98;1.80;;;;;;;17.43;54.13;102879.38;4993868;28;20830;-69
2022/10/06 11:02:54;;;;;;;19.10;3.10;;;;;;;17.53;53.55;102873.72;4993635;28;20534;-69
2022/10/06 11:06:12;;;;;;;14.18;1.98;;;;;;;17.73;54.15;102872.31;5026118;28;20050;-70
2022/10/06 11:09:08;;;;;;;6.82;1.42;;;;;;;17.98;53.11;102872.50;5015699;28;20046;-70
2022/10/06 11:12:26;;;;;;;8.15;1.73;;;;;;;18.02;53.45;102872.41;5013116;28;20038;-70
2022/10/06 11:15:05;;;;;;;19.30;1.90;;;;;;;17.98;52.48;102868.97;5011677;28;20056;-70
2022/10/06 11:17:43;;;;;;;17.00;2.15;;;;;;;17.97;51.25;102872.56;5005410;28;20054;-70
2022/10/06 11:20:55;;;;;;;15.00;1.63;;;;;;;17.95;51.35;102863.69;4997476;28;20050;-70
2022/10/06 11:24:14;;;;;;;22.17;2.78;;;;;;;17.80;51.73;102875.66;4996550;28;20050;-69
2022/10/06 11:27:00;;;;;;;8.75;1.73;;;;;;;17.87;52.19;102879.03;4994771;28;20075;-70
2022/10/06 11:29:56;;;;;;;41.25;3.20;;;;;;;17.98;52.87;102875.16;4997154;28;20116;-69
2022/10/06 11:32:47;;;;;;;24.58;2.35;;;;;;;17.95;52.99;102883.25;5006458;28;20051;-70
2022/10/06 11:35:25;;;;;;;16.63;2.40;;;;;;;17.86;52.92;102880.81;5008865;28;20043;-70
2022/10/06 11:38:11;;;;;;;15.02;2.70;;;;;;;17.65;52.37;102879.66;5012945;28;20042;-69
2022/10/06 11:41:17;;;;;;;8.25;2.10;;;;;;;17.60;52.53;102881.59;5012820;28;20038;-70
2022/10/06 11:44:18;;;;;;;19.67;2.20;;;;;;;17.62;51.16;102879.72;5012457;28;20058;-70
2022/10/06 11:46:56;;;;;;;17.38;2.53;;;;;;;17.58;51.46;102870.94;5011812;28;20034;-69
2022/10/06 11:49:30;;;;;;;7.00;1.23;;;;;;;17.33;51.52;102876.97;5004522;28;20097;-70
2022/10/06 11:52:06;;;;;;;11.55;1.70;;;;;;;17.17;51.75;102883.59;5009912;28;20891;-70
2022/10/06 11:54:38;;;;;;;17.40;2.83;;;;;;;17.20;51.71;102887.03;5020189;28;20046;-70
2022/10/06 11:57:25;;;;;;;4.85;1.30;;;;;;;16.92;52.73;102882.38;5021064;28;20054;-70
2022/10/06 12:00:03;;;;;;;8.48;1.77;;;;;;;17.10;52.59;102872.19;5014892;28;20041;-69
2022/10/06 12:02:37;;;;;;;13.50;1.80;;;;;;;17.26;52.31;102869.16;5031794;28;20117;-69
2022/10/06 12:05:10;;;;;;;7.40;1.30;;;;;;;17.47;52.44;102867.69;5014471;28;20049;-69
2022/10/06 12:08:00;;;;;;;13.23;2.00;;;;;;;17.55;51.55;102865.69;5010246;28;20073;-70